Time;durP1;ratioP1;P1;durP2;ratioP2;P2;SDS_P1;SDS_P2;PMS_P1;PMS_P2;Temp;Humidity;BMP_temperature;BMP_pressure;BME280_temperature;BME280_humidity;BME280_pressure;Samples;Min_cycle;Max_cycle;Signal;HPM_P1;HPM_P2
2021/10/04 00:02:46;;;;;;;4.80;4.20;;;;;;;9.96;82.79;97436.56;6259756;28;20222;-72
2021/10/04 00:05:48;;;;;;;3.47;3.10;;;;;;;9.96;82.90;97439.22;6256189;28;20199;-72
2021/10/04 00:08:50;;;;;;;4.27;3.50;;;;;;;9.96;82.95;97445.31;6268914;28;20349;-72
2021/10/04 00:11:53;;;;;;;4.90;4.20;;;;;;;9.94;83.15;97443.75;6267786;28;20191;-72
2021/10/04 00:14:55;;;;;;;4.20;3.80;;;;;;;9.93;82.93;97445.56;6266507;28;20204;-72
2021/10/04 00:17:59;;;;;;;5.13;3.50;;;;;;;9.89;82.79;97443.28;6252974;28;20198;-72
2021/10/04 00:21:01;;;;;;;6.47;4.10;;;;;;;9.82;82.50;97450.88;6244208;28;20227;-72
2021/10/04 00:24:03;;;;;;;4.80;4.10;;;;;;;9.81;83.00;97450.97;6243054;28;20210;-72
2021/10/04 00:27:05;;;;;;;4.20;3.73;;;;;;;9.78;82.84;97453.88;6260998;28;20195;-72
2021/10/04 00:30:09;;;;;;;4.37;3.90;;;;;;;9.74;82.58;97445.38;6267750;28;20199;-72
2021/10/04 00:33:11;;;;;;;4.93;4.43;;;;;;;9.71;82.82;97436.88;6268849;28;20355;-72
2021/10/04 00:36:13;;;;;;;4.70;3.73;;;;;;;9.66;82.69;97436.44;6268755;28;20213;-72
2021/10/04 00:39:15;;;;;;;4.07;3.23;;;;;;;9.66;83.25;97444.31;6268996;28;20191;-72
2021/10/04 00:42:17;;;;;;;3.97;3.57;;;;;;;9.68;83.06;97434.50;6267373;28;20199;-72
2021/10/04 00:45:19;;;;;;;5.13;3.57;;;;;;;9.69;83.12;97446.69;6268882;28;20195;-72
2021/10/04 00:48:21;;;;;;;3.40;3.10;;;;;;;9.66;82.75;97447.81;6268569;28;20218;-72
2021/10/04 00:51:23;;;;;;;4.73;3.67;;;;;;;9.66;83.02;97444.31;6268673;28;20274;-72
2021/10/04 00:54:25;;;;;;;4.53;3.83;;;;;;;9.66;83.29;97452.22;6267264;28;20218;-72
2021/10/04 00:57:28;;;;;;;4.43;3.63;;;;;;;9.62;83.37;97460.38;6268504;28;20199;-72
2021/10/04 01:00:30;;;;;;;5.67;3.20;;;;;;;9.61;83.45;97458.69;6268490;28;20221;-72
2021/10/04 01:03:33;;;;;;;4.23;3.57;;;;;;;9.57;83.20;97456.44;6268442;28;20544;-72
2021/10/04 01:06:35;;;;;;;4.90;3.10;;;;;;;9.51;83.54;97457.75;6267298;28;20192;-72
2021/10/04 01:09:37;;;;;;;5.10;3.50;;;;;;;9.47;83.12;97458.13;6268388;28;20394;-72
2021/10/04 01:12:45;;;;;;;4.80;3.70;;;;;;;9.42;83.66;97463.75;6268252;28;20196;-72
2021/10/04 01:15:47;;;;;;;3.93;3.43;;;;;;;9.34;82.80;97455.63;6267019;28;20219;-72
2021/10/04 01:18:49;;;;;;;4.73;3.27;;;;;;;9.34;83.83;97463.53;6265716;28;20196;-72
2021/10/04 01:21:51;;;;;;;5.13;3.63;;;;;;;9.35;83.24;97467.00;6253544;28;20555;-72
2021/10/04 01:24:53;;;;;;;5.03;3.47;;;;;;;9.35;83.23;97457.31;6243540;28;20537;-72
2021/10/04 01:27:55;;;;;;;4.70;3.30;;;;;;;9.32;83.71;97468.06;6243712;28;20188;-72
2021/10/04 01:30:58;;;;;;;4.83;3.30;;;;;;;9.33;83.47;97464.47;6259474;28;20200;-72
2021/10/04 01:34:00;;;;;;;4.07;3.40;;;;;;;9.33;83.64;97467.13;6270920;28;20196;-72
2021/10/04 01:37:02;;;;;;;5.10;3.87;;;;;;;9.33;83.28;97476.81;6271322;28;20215;-72
2021/10/04 01:40:08;;;;;;;4.57;3.50;;;;;;;9.31;83.60;97478.72;6272532;28;20202;-72
2021/10/04 01:43:11;;;;;;;4.33;3.50;;;;;;;9.26;83.38;97479.09;6271206;28;20658;-72
2021/10/04 01:46:13;;;;;;;4.60;3.70;;;;;;;9.21;83.35;97482.06;6271384;28;20761;-72
2021/10/04 01:49:15;;;;;;;3.77;3.33;;;;;;;9.21;83.96;97474.19;6272243;28;20662;-72
2021/10/04 01:52:17;;;;;;;3.90;3.43;;;;;;;9.24;83.55;97488.91;6271206;28;20639;-72
2021/10/04 01:55:19;;;;;;;4.67;4.00;;;;;;;9.23;83.95;97488.06;6272062;28;20635;-72
2021/10/04 01:58:21;;;;;;;5.20;4.23;;;;;;;9.21;83.72;97481.22;6270860;28;20731;-72
2021/10/04 02:01:23;;;;;;;6.70;4.10;;;;;;;9.22;83.79;97481.13;6262771;28;20231;-72
2021/10/04 02:04:25;;;;;;;4.33;3.93;;;;;;;9.21;83.75;97483.88;6272108;28;20566;-72
2021/10/04 02:07:27;;;;;;;4.93;3.93;;;;;;;9.16;84.21;97483.41;6270333;28;20242;-72
2021/10/04 02:10:35;;;;;;;5.47;3.23;;;;;;;9.20;84.13;97484.81;6271848;28;20227;-71
2021/10/04 02:13:37;;;;;;;4.33;3.73;;;;;;;9.21;83.93;97483.88;6270461;28;20269;-71
2021/10/04 02:16:41;;;;;;;4.70;3.90;;;;;;;9.22;84.31;97486.38;6258963;28;20576;-72
2021/10/04 02:19:43;;;;;;;5.20;3.90;;;;;;;9.20;84.10;97488.28;6260680;28;20196;-72
2021/10/04 02:22:46;;;;;;;7.13;3.93;;;;;;;9.22;84.14;97496.06;6245660;28;20196;-72
2021/10/04 02:25:51;;;;;;;4.60;3.90;;;;;;;9.22;83.68;97504.81;6245889;28;20508;-72
2021/10/04 02:28:53;;;;;;;6.17;3.87;;;;;;;9.19;84.14;97497.16;6250568;28;20678;-72
2021/10/04 02:31:55;;;;;;;4.50;3.90;;;;;;;9.20;84.40;97500.63;6271648;28;20199;-72
2021/10/04 02:34:57;;;;;;;6.33;4.10;;;;;;;9.17;84.12;97496.44;6269870;28;20571;-72
2021/10/04 02:38:00;;;;;;;4.80;3.80;;;;;;;9.16;84.08;97502.66;6253506;28;20662;-72
2021/10/04 02:41:02;;;;;;;5.90;4.23;;;;;;;9.13;84.52;97500.25;6271073;28;20202;-72
2021/10/04 02:44:04;;;;;;;3.63;3.20;;;;;;;9.12;83.74;97501.22;6270795;28;20282;-72
2021/10/04 02:47:06;;;;;;;5.87;4.47;;;;;;;9.14;84.18;97509.84;6269625;28;20194;-72
2021/10/04 02:50:13;;;;;;;4.80;4.30;;;;;;;9.11;84.25;97506.59;6269475;28;20206;-71
2021/10/04 02:53:15;;;;;;;4.73;3.93;;;;;;;9.09;84.66;97504.09;6270829;28;20182;-72
2021/10/04 02:56:17;;;;;;;5.03;3.93;;;;;;;9.07;84.19;97503.38;6271424;28;20219;-72
2021/10/04 02:59:19;;;;;;;4.37;3.83;;;;;;;9.07;84.25;97511.28;6270554;28;20277;-72
2021/10/04 03:02:23;;;;;;;4.60;3.93;;;;;;;9.12;84.61;97509.13;6270389;28;20215;-72
2021/10/04 03:05:25;;;;;;;5.80;4.60;;;;;;;9.13;84.69;97513.44;6269232;28;20195;-72
2021/10/04 03:08:27;;;;;;;5.97;3.90;;;;;;;9.14;84.37;97516.91;6269093;28;20393;-72
2021/10/04 03:11:29;;;;;;;5.07;4.27;;;;;;;9.11;84.04;97522.41;6270322;28;20202;-72
2021/10/04 03:14:33;;;;;;;4.00;3.57;;;;;;;9.08;84.58;97526.13;6270035;28;20184;-72
2021/10/04 03:17:35;;;;;;;4.87;3.93;;;;;;;9.07;84.49;97526.25;6268842;28;20671;-73
2021/10/04 03:20:38;;;;;;;4.70;3.73;;;;;;;9.05;84.53;97531.63;6270132;28;20183;-72
2021/10/04 03:23:40;;;;;;;4.43;3.40;;;;;;;9.07;84.35;97537.59;6270223;28;20262;-72
2021/10/04 03:26:42;;;;;;;5.07;4.13;;;;;;;9.09;84.37;97533.03;6269977;28;20191;-72
2021/10/04 03:29:44;;;;;;;4.60;3.83;;;;;;;9.09;83.96;97535.66;6269678;28;20194;-73
2021/10/04 03:32:48;;;;;;;4.40;4.00;;;;;;;9.09;84.57;97537.47;6269867;28;20199;-72
2021/10/04 03:35:50;;;;;;;4.90;4.13;;;;;;;9.08;84.32;97541.06;6269978;28;20277;-73
2021/10/04 03:38:53;;;;;;;3.97;3.57;;;;;;;9.02;84.58;97544.16;6269747;28;20194;-73
2021/10/04 03:41:56;;;;;;;5.27;4.43;;;;;;;9.00;84.74;97541.63;6251869;28;20207;-72
2021/10/04 03:44:58;;;;;;;4.27;3.70;;;;;;;8.98;84.99;97548.84;6270269;28;20281;-72
2021/10/04 03:48:00;;;;;;;5.93;4.33;;;;;;;8.94;84.71;97538.66;6268464;28;20192;-71
2021/10/04 03:51:02;;;;;;;4.57;4.00;;;;;;;8.94;84.72;97552.66;6269473;28;20674;-71
2021/10/04 03:54:04;;;;;;;5.50;4.10;;;;;;;8.95;84.97;97556.97;6269463;28;20199;-72
2021/10/04 03:57:06;;;;;;;5.60;4.43;;;;;;;8.95;85.40;97561.38;6267656;28;20554;-72
2021/10/04 04:00:12;;;;;;;4.97;4.00;;;;;;;8.92;85.29;97554.53;6269224;28;20227;-72
2021/10/04 04:03:14;;;;;;;6.47;4.30;;;;;;;8.91;85.25;97563.41;6269317;28;20202;-71
2021/10/04 04:06:16;;;;;;;4.40;3.93;;;;;;;8.93;85.13;97566.75;6251437;28;20196;-72
2021/10/04 04:09:18;;;;;;;4.97;4.13;;;;;;;8.95;85.03;97574.53;6267866;28;20238;-72
2021/10/04 04:12:20;;;;;;;4.37;3.97;;;;;;;8.97;85.30;97580.53;6269187;28;20191;-72
2021/10/04 04:15:22;;;;;;;6.63;4.77;;;;;;;8.96;85.04;97592.00;6268862;28;20211;-72
2021/10/04 04:18:24;;;;;;;5.67;4.80;;;;;;;8.93;85.23;97587.81;6268178;28;20274;-71
2021/10/04 04:21:26;;;;;;;5.63;4.80;;;;;;;8.92;84.85;97593.19;6251246;28;20207;-71
2021/10/04 04:24:43;;;;;;;4.73;3.97;;;;;;;8.89;85.51;97591.63;6257505;28;20196;-71
2021/10/04 04:27:45;;;;;;;5.23;4.60;;;;;;;8.88;85.15;97603.94;6244450;28;20196;-71
2021/10/04 04:30:48;;;;;;;5.03;4.17;;;;;;;8.88;84.70;97595.22;6263685;28;20198;-72
2021/10/04 04:33:52;;;;;;;5.40;4.57;;;;;;;8.89;85.15;97597.72;6267510;28;20187;-71
2021/10/04 04:36:54;;;;;;;5.03;4.13;;;;;;;8.91;85.19;97600.25;6268796;28;20213;-72
2021/10/04 04:39:56;;;;;;;4.43;4.00;;;;;;;8.88;84.70;97606.56;6267724;28;20219;-72
2021/10/04 04:42:58;;;;;;;4.83;4.03;;;;;;;8.83;85.25;97607.88;6269442;28;20203;-72
2021/10/04 04:46:00;;;;;;;5.10;4.03;;;;;;;8.76;84.40;97609.28;6268689;28;20195;-71
2021/10/04 04:49:02;;;;;;;6.60;4.00;;;;;;;8.71;85.02;97616.66;6268770;28;20198;-72
2021/10/04 04:52:04;;;;;;;4.27;3.70;;;;;;;8.68;84.49;97606.41;6268640;28;20199;-71
2021/10/04 04:55:08;;;;;;;3.70;3.40;;;;;;;8.66;84.39;97610.91;6268461;28;20226;-72
2021/10/04 04:58:10;;;;;;;6.40;4.20;;;;;;;8.69;85.47;97602.78;6267295;28;20577;-72
2021/10/04 05:01:11;;;;;;;4.33;3.73;;;;;;;8.69;84.65;97603.63;6267081;28;20226;-71
2021/10/04 05:04:14;;;;;;;5.33;4.20;;;;;;;8.70;84.69;97607.09;6269064;28;20179;-71
2021/10/04 05:07:16;;;;;;;4.87;4.23;;;;;;;8.74;84.93;97609.41;6269351;28;20223;-72
2021/10/04 05:10:18;;;;;;;4.97;4.27;;;;;;;8.74;84.92;97614.66;6273202;28;20198;-72
2021/10/04 05:13:20;;;;;;;5.03;4.27;;;;;;;8.76;85.21;97623.28;6273498;28;20196;-71
2021/10/04 05:16:22;;;;;;;4.37;3.97;;;;;;;8.76;85.17;97614.56;6258995;28;20200;-71
2021/10/04 05:19:24;;;;;;;5.60;4.60;;;;;;;8.75;85.17;97621.59;6258192;28;20205;-71
2021/10/04 05:22:26;;;;;;;5.10;4.10;;;;;;;8.75;84.51;97621.59;6246743;28;20192;-72
2021/10/04 05:25:28;;;;;;;5.17;4.67;;;;;;;8.77;84.78;97629.38;6247792;28;20199;-71
2021/10/04 05:28:31;;;;;;;5.73;4.53;;;;;;;8.77;84.93;97627.59;6249080;28;20730;-72
2021/10/04 05:31:33;;;;;;;5.30;4.10;;;;;;;8.76;84.68;97625.91;6287657;28;20568;-71
2021/10/04 05:34:36;;;;;;;6.27;4.43;;;;;;;8.78;84.59;97624.00;6272375;28;20204;-72
2021/10/04 05:37:39;;;;;;;7.50;5.70;;;;;;;8.73;85.14;97620.88;6287571;28;20222;-72
2021/10/04 05:40:42;;;;;;;6.87;5.07;;;;;;;8.70;84.49;97623.72;6271004;28;20200;-72
2021/10/04 05:43:44;;;;;;;6.57;4.50;;;;;;;8.73;85.11;97620.03;6270927;28;20206;-72
2021/10/04 05:46:46;;;;;;;5.40;4.53;;;;;;;8.78;84.73;97621.34;6272157;28;20538;-72
2021/10/04 05:49:48;;;;;;;4.83;3.50;;;;;;;8.83;84.54;97629.75;6270825;28;20589;-72
2021/10/04 05:52:50;;;;;;;5.37;3.73;;;;;;;8.86;84.64;97626.91;6272069;28;20187;-71
2021/10/04 05:55:52;;;;;;;5.60;4.10;;;;;;;8.93;84.87;97637.81;6272000;28;20682;-71
2021/10/04 05:58:53;;;;;;;5.83;4.50;;;;;;;8.96;84.31;97634.13;6271845;28;20263;-72
2021/10/04 06:01:55;;;;;;;4.67;4.17;;;;;;;9.01;85.03;97642.50;6272063;28;20224;-72
2021/10/04 06:04:57;;;;;;;4.60;3.93;;;;;;;9.05;84.48;97650.06;6270416;28;20195;-72
2021/10/04 06:08:02;;;;;;;5.30;4.27;;;;;;;9.05;84.50;97636.06;6253492;28;20289;-72
2021/10/04 06:11:04;;;;;;;5.83;4.90;;;;;;;9.06;84.98;97653.53;6271588;28;20682;-72
2021/10/04 06:14:06;;;;;;;6.53;5.17;;;;;;;9.10;84.94;97647.91;6271662;28;20668;-72
2021/10/04 06:17:08;;;;;;;5.93;4.70;;;;;;;9.16;84.51;97657.16;6271028;28;20207;-72
2021/10/04 06:20:11;;;;;;;4.60;4.03;;;;;;;9.24;84.91;97655.63;6286306;28;20729;-72
2021/10/04 06:23:13;;;;;;;6.97;5.13;;;;;;;9.30;84.65;97658.75;6246836;28;20337;-72
2021/10/04 06:26:15;;;;;;;6.47;5.27;;;;;;;9.37;84.35;97668.72;6228810;28;20664;-72
2021/10/04 06:29:16;;;;;;;5.07;4.17;;;;;;;9.41;84.77;97683.31;6252474;28;20284;-72
2021/10/04 06:32:18;;;;;;;5.37;4.47;;;;;;;9.46;84.88;97690.91;6270887;28;20278;-71
2021/10/04 06:35:20;;;;;;;5.10;4.13;;;;;;;9.53;84.95;97684.19;6269569;28;20201;-72
2021/10/04 06:38:23;;;;;;;5.23;4.30;;;;;;;9.58;84.04;97695.25;6269542;28;20576;-72
2021/10/04 06:41:29;;;;;;;5.57;5.03;;;;;;;9.63;84.05;97693.06;6270896;28;20190;-71
2021/10/04 06:44:31;;;;;;;4.77;4.27;;;;;;;9.62;84.51;97689.59;6270865;28;20195;-72
2021/10/04 06:47:34;;;;;;;5.83;4.63;;;;;;;9.69;84.71;97697.88;6270616;28;20183;-72
2021/10/04 06:50:36;;;;;;;5.67;4.97;;;;;;;9.78;84.25;97709.53;6270697;28;20200;-72
2021/10/04 06:53:38;;;;;;;5.30;4.67;;;;;;;9.85;84.60;97703.66;6252808;28;20204;-72
2021/10/04 06:56:40;;;;;;;5.60;5.00;;;;;;;9.91;84.21;97713.72;6270594;28;20203;-72
2021/10/04 06:59:42;;;;;;;5.83;4.30;;;;;;;9.96;84.00;97714.22;6270430;28;20678;-72
2021/10/04 07:02:44;;;;;;;6.07;5.17;;;;;;;10.05;83.99;97717.09;6270240;28;20540;-72
2021/10/04 07:05:47;;;;;;;5.30;4.80;;;;;;;10.14;84.16;97719.03;6270280;28;20195;-72
2021/10/04 07:08:49;;;;;;;6.30;4.80;;;;;;;10.24;84.32;97722.66;6268773;28;20629;-72
2021/10/04 07:11:51;;;;;;;6.40;4.20;;;;;;;10.34;84.03;97721.81;6270184;28;20203;-71
2021/10/04 07:14:55;;;;;;;5.73;4.60;;;;;;;10.47;83.80;97728.75;6269879;28;20231;-72
2021/10/04 07:17:57;;;;;;;5.77;5.00;;;;;;;10.59;83.96;97738.31;6257853;28;20215;-72
2021/10/04 07:20:58;;;;;;;5.70;5.00;;;;;;;10.67;83.92;97734.13;6253329;28;20713;-72
2021/10/04 07:24:01;;;;;;;4.87;4.27;;;;;;;10.77;83.94;97736.88;6245134;28;20630;-72
2021/10/04 07:27:04;;;;;;;5.03;4.57;;;;;;;10.89;84.40;97742.94;6247656;28;20184;-72
2021/10/04 07:30:08;;;;;;;5.27;4.63;;;;;;;11.04;84.10;97747.00;6254655;28;20196;-71
2021/10/04 07:33:10;;;;;;;8.17;5.33;;;;;;;11.15;84.23;97744.34;6257759;28;20203;-72
2021/10/04 07:36:12;;;;;;;6.60;4.73;;;;;;;11.30;83.98;97747.50;6253467;28;20711;-72
2021/10/04 07:39:15;;;;;;;5.13;4.63;;;;;;;11.51;84.00;97750.19;6254658;28;20196;-72
2021/10/04 07:42:17;;;;;;;5.17;4.40;;;;;;;11.71;83.52;97747.56;6258696;28;20432;-72
2021/10/04 07:45:20;;;;;;;10.23;6.20;;;;;;;11.96;83.19;97750.84;6262251;28;20278;-71
2021/10/04 07:48:22;;;;;;;7.80;5.53;;;;;;;12.28;83.15;97750.75;6269325;28;20193;-72
2021/10/04 07:51:24;;;;;;;7.00;5.50;;;;;;;12.61;82.41;97747.78;6269257;28;20189;-72
2021/10/04 07:54:26;;;;;;;7.63;5.93;;;;;;;13.00;81.38;97748.72;6269344;28;20193;-72
2021/10/04 07:57:28;;;;;;;6.27;5.67;;;;;;;13.37;80.14;97748.97;6268861;28;20208;-72
2021/10/04 08:00:30;;;;;;;7.80;6.30;;;;;;;13.76;79.55;97749.78;6260323;28;20215;-72
2021/10/04 08:03:32;;;;;;;8.10;6.90;;;;;;;14.10;78.39;97746.66;6269147;28;20670;-72
2021/10/04 08:06:34;;;;;;;8.27;6.80;;;;;;;14.42;77.65;97747.16;6267739;28;20200;-72
2021/10/04 08:09:36;;;;;;;8.50;5.87;;;;;;;14.74;76.68;97744.06;6268793;28;20235;-72
2021/10/04 08:12:38;;;;;;;9.17;8.07;;;;;;;15.06;76.11;97738.31;6268837;28;20199;-72
2021/10/04 08:15:40;;;;;;;10.77;8.47;;;;;;;15.42;75.23;97734.69;6269088;28;20620;-72
2021/10/04 08:18:43;;;;;;;7.17;6.00;;;;;;;15.73;74.25;97734.31;6259373;28;20233;-72
2021/10/04 08:21:46;;;;;;;7.17;5.93;;;;;;;16.08;73.21;97733.41;6248780;28;20569;-71
2021/10/04 08:24:48;;;;;;;8.10;6.90;;;;;;;16.38;72.39;97732.09;6268777;28;20188;-72
2021/10/04 08:27:50;;;;;;;7.47;5.80;;;;;;;16.62;71.80;97731.41;6268790;28;20192;-72
2021/10/04 08:30:52;;;;;;;7.00;5.30;;;;;;;16.96;70.83;97745.56;6268551;28;20213;-72
2021/10/04 08:33:54;;;;;;;6.20;5.60;;;;;;;17.31;69.67;97739.13;6268526;28;20640;-72
2021/10/04 08:36:56;;;;;;;6.03;4.97;;;;;;;17.61;68.97;97741.19;6268590;28;20290;-72
2021/10/04 08:40:05;;;;;;;5.17;4.67;;;;;;;17.90;68.30;97739.88;6268790;28;20184;-72
2021/10/04 08:43:07;;;;;;;7.77;6.60;;;;;;;18.22;66.76;97733.69;6272928;28;20202;-72
2021/10/04 08:46:09;;;;;;;6.70;6.00;;;;;;;18.53;66.25;97733.78;6272258;28;20577;-72
2021/10/04 08:49:18;;;;;;;5.90;5.30;;;;;;;18.79;65.05;97729.03;6273388;28;20540;-72
2021/10/04 08:52:20;;;;;;;8.40;7.13;;;;;;;19.00;64.12;97726.59;6273397;28;20537;-72
2021/10/04 08:55:23;;;;;;;8.83;6.70;;;;;;;19.20;63.19;97728.81;6273347;28;20270;-72
2021/10/04 08:58:25;;;;;;;8.80;7.03;;;;;;;19.51;62.42;97724.31;6271930;28;20207;-72
2021/10/04 09:01:28;;;;;;;6.60;5.90;;;;;;;19.74;61.77;97730.50;6269616;28;20215;-72
2021/10/04 09:04:30;;;;;;;7.57;6.80;;;;;;;19.84;61.50;97725.75;6271880;28;20203;-72
2021/10/04 09:07:46;;;;;;;5.67;5.17;;;;;;;20.13;61.29;97722.28;6272733;28;20223;-72
2021/10/04 09:10:53;;;;;;;6.10;5.50;;;;;;;20.37;61.14;97717.72;6273035;28;20602;-72
2021/10/04 09:14:01;;;;;;;8.30;6.50;;;;;;;20.58;59.92;97724.00;6273015;28;20199;-72
2021/10/04 09:17:11;;;;;;;7.73;5.80;;;;;;;20.66;59.92;97723.13;6266082;28;20212;-72
2021/10/04 09:20:13;;;;;;;5.70;5.13;;;;;;;20.70;59.82;97719.03;6267577;28;20199;-72
2021/10/04 09:23:35;;;;;;;5.87;5.13;;;;;;;20.93;59.07;97721.59;6248171;28;20192;-72
2021/10/04 09:26:37;;;;;;;5.50;5.00;;;;;;;21.02;59.16;97725.00;6246790;28;20553;-72
2021/10/04 09:29:49;;;;;;;8.03;7.07;;;;;;;21.19;57.53;97729.16;6258098;28;20532;-72
2021/10/04 09:32:52;;;;;;;8.17;6.20;;;;;;;21.53;57.39;97731.19;6272463;28;20187;-72
2021/10/04 09:35:54;;;;;;;8.90;7.13;;;;;;;21.20;57.93;97739.72;6272375;28;20338;-72
2021/10/04 09:39:15;;;;;;;9.80;7.60;;;;;;;21.36;57.72;97736.78;6272486;28;20275;-72
2021/10/04 09:42:18;;;;;;;9.57;7.50;;;;;;;21.49;56.61;97744.16;6272457;28;20192;-72
2021/10/04 09:45:20;;;;;;;10.30;8.33;;;;;;;21.77;55.84;97751.47;6272632;28;20558;-72
2021/10/04 09:48:22;;;;;;;8.67;7.77;;;;;;;21.72;55.43;97749.38;6270922;28;20195;-72
2021/10/04 09:51:24;;;;;;;7.40;6.67;;;;;;;22.01;55.11;97741.19;6270852;28;20561;-72
2021/10/04 09:54:26;;;;;;;7.17;6.47;;;;;;;22.00;54.49;97744.06;6271289;28;20228;-72
2021/10/04 09:57:28;;;;;;;14.53;9.33;;;;;;;22.00;53.67;97746.75;6270717;28;20203;-72
2021/10/04 10:00:40;;;;;;;10.00;8.57;;;;;;;21.84;54.03;97749.69;6271756;28;20625;-72
2021/10/04 10:03:43;;;;;;;9.87;7.60;;;;;;;21.88;54.29;97748.25;6262614;28;20196;-72
2021/10/04 10:06:48;;;;;;;7.53;6.20;;;;;;;22.27;54.52;97755.88;6265254;28;20219;-72
2021/10/04 10:10:00;;;;;;;6.83;6.13;;;;;;;22.55;54.29;97755.88;6270436;28;20192;-72
2021/10/04 10:13:02;;;;;;;7.97;6.27;;;;;;;22.83;53.36;97754.00;6272106;28;20187;-72
2021/10/04 10:16:20;;;;;;;10.10;6.43;;;;;;;22.98;51.76;97746.63;6260072;28;20265;-72
2021/10/04 10:19:26;;;;;;;6.33;5.73;;;;;;;23.11;52.80;97746.69;6256674;28;20354;-72
2021/10/04 10:22:32;;;;;;;9.77;7.80;;;;;;;23.03;51.27;97752.25;6246748;28;20199;-71
2021/10/04 10:25:44;;;;;;;8.73;6.90;;;;;;;22.51;51.81;97750.06;6246665;28;20667;-72
2021/10/04 10:28:46;;;;;;;8.60;7.80;;;;;;;22.73;51.11;97753.50;6249504;28;20274;-72
2021/10/04 10:31:47;;;;;;;7.17;5.93;;;;;;;22.87;51.69;97752.56;6271256;28;20191;-72
2021/10/04 10:34:51;;;;;;;5.80;5.30;;;;;;;23.43;51.43;97747.03;6271086;28;20402;-72
2021/10/04 10:37:54;;;;;;;6.17;5.57;;;;;;;23.63;50.63;97755.19;6269748;28;20337;-72
2021/10/04 10:41:14;;;;;;;10.00;6.70;;;;;;;23.50;49.06;97739.81;6270988;28;20191;-72
2021/10/04 10:44:16;;;;;;;8.30;6.67;;;;;;;22.93;50.39;97738.34;6270979;28;20191;-72
2021/10/04 10:47:41;;;;;;;6.90;6.07;;;;;;;23.14;48.24;97737.41;6270756;28;20197;-72
2021/10/04 10:50:48;;;;;;;6.23;5.20;;;;;;;23.65;48.97;97748.56;6269325;28;20200;-72
2021/10/04 10:53:50;;;;;;;6.33;5.63;;;;;;;23.21;47.86;97753.56;6270785;28;20599;-72
2021/10/04 10:56:53;;;;;;;5.43;4.67;;;;;;;23.32;48.63;97732.28;6270439;28;20289;-72
2021/10/04 11:00:40;;;;;;;5.67;4.77;;;;;;;23.95;48.25;97738.25;6270308;28;20219;-72
2021/10/04 11:03:53;;;;;;;5.00;4.50;;;;;;;23.64;46.02;97735.28;6237999;28;20662;-71
2021/10/04 11:06:56;;;;;;;6.10;5.50;;;;;;;23.49;47.27;97728.19;6268829;28;20678;-72
2021/10/04 11:10:08;;;;;;;5.93;4.63;;;;;;;23.79;46.93;97735.94;6270293;28;20176;-72
2021/10/04 11:13:10;;;;;;;6.10;4.47;;;;;;;24.24;46.26;97731.63;6270376;28;20176;-72
2021/10/04 11:16:12;;;;;;;5.90;5.33;;;;;;;24.10;46.26;97735.34;6270326;28;20183;-72
2021/10/04 11:19:22;;;;;;;6.83;4.77;;;;;;;24.22;45.87;97728.31;6267815;28;20215;-72
2021/10/04 11:22:24;;;;;;;7.37;5.57;;;;;;;23.82;46.20;97728.28;6250801;28;20643;-72
2021/10/04 11:25:26;;;;;;;6.77;5.83;;;;;;;23.48;47.38;97713.03;6243785;28;20647;-72
2021/10/04 11:28:44;;;;;;;6.80;4.43;;;;;;;24.02;47.18;97717.50;6245663;28;20184;-72
2021/10/04 11:31:46;;;;;;;9.97;5.27;;;;;;;24.44;45.95;97716.25;6252334;28;20570;-72
2021/10/04 11:34:48;;;;;;;5.13;4.67;;;;;;;25.00;46.07;97713.84;6269735;28;20681;-72
2021/10/04 11:37:50;;;;;;;7.55;6.00;;;;;;;24.70;45.90;97712.66;6269518;28;20195;-72
2021/10/04 11:40:52;;;;;;;5.30;4.90;;;;;;;24.80;45.36;97713.06;6268168;28;20278;-71
2021/10/04 11:43:58;;;;;;;7.20;6.50;;;;;;;24.90;44.84;97709.91;6269992;28;20199;-72
2021/10/04 11:47:03;;;;;;;6.28;5.68;;;;;;;24.86;44.84;97712.19;6268211;28;20278;-72
2021/10/04 11:50:14;;;;;;;6.95;5.60;;;;;;;25.23;44.70;97707.09;6269318;28;20655;-72
2021/10/04 11:53:18;;;;;;;7.88;5.28;;;;;;;25.38;45.02;97699.53;6269262;28;20199;-72
2021/10/04 11:56:21;;;;;;;10.65;6.00;;;;;;;25.08;44.45;97696.56;6269249;28;20659;-71
2021/10/04 11:59:23;;;;;;;7.10;5.30;;;;;;;25.15;44.84;97699.25;6269128;28;20219;-72
2021/10/04 12:02:29;;;;;;;7.30;6.15;;;;;;;25.30;44.99;97695.22;6268970;28;20767;-71
2021/10/04 12:05:33;;;;;;;6.50;5.63;;;;;;;24.95;45.20;97689.38;6269276;28;20663;-72
2021/10/04 12:08:43;;;;;;;6.45;5.60;;;;;;;24.91;45.15;97685.41;6268884;28;20220;-71
2021/10/04 12:11:54;;;;;;;7.10;6.35;;;;;;;24.57;45.69;97678.44;6269163;28;20207;-72
2021/10/04 12:14:56;;;;;;;7.30;6.00;;;;;;;24.88;45.38;97682.28;6268984;28;20176;-72
2021/10/04 12:17:58;;;;;;;7.13;5.50;;;;;;;25.14;45.26;97693.03;6252959;28;20697;-71
2021/10/04 12:21:27;;;;;;;7.65;6.00;;;;;;;25.41;44.46;97680.19;6249451;28;20192;-72
2021/10/04 12:24:37;;;;;;;6.20;5.60;;;;;;;25.91;43.64;97674.88;6244218;28;20196;-72
2021/10/04 12:27:58;;;;;;;8.13;5.60;;;;;;;26.01;43.65;97677.91;6243899;28;20215;-71
2021/10/04 12:31:00;;;;;;;7.13;6.43;;;;;;;25.41;43.33;97674.78;6264073;28;20199;-71
2021/10/04 12:34:26;;;;;;;5.60;5.10;;;;;;;25.40;44.82;97666.91;6267514;28;20265;-72
2021/10/04 12:37:31;;;;;;;5.15;4.57;;;;;;;25.72;44.00;97669.41;6268538;28;20219;-72
2021/10/04 12:40:48;;;;;;;5.57;5.07;;;;;;;26.03;43.55;97670.41;6268949;28;20248;-72
2021/10/04 12:43:50;;;;;;;9.15;5.63;;;;;;;25.91;43.95;97669.47;6268587;28;20668;-72
2021/10/04 12:47:07;;;;;;;5.25;4.63;;;;;;;26.00;43.11;97666.28;6267135;28;20195;-72
2021/10/04 12:50:09;;;;;;;5.55;4.93;;;;;;;26.04;42.74;97669.38;6268528;28;20290;-72
2021/10/04 12:53:19;;;;;;;5.88;4.57;;;;;;;26.28;43.28;97665.00;6268458;28;20187;-72
2021/10/04 12:56:29;;;;;;;6.53;4.80;;;;;;;26.23;41.84;97665.66;6267333;28;20211;-72
2021/10/04 12:59:32;;;;;;;7.22;4.30;;;;;;;26.07;41.46;97664.31;6268395;28;20219;-71
2021/10/04 13:02:34;;;;;;;4.15;3.72;;;;;;;25.56;41.99;97664.50;6268036;28;20218;-72
2021/10/04 13:05:37;;;;;;;4.72;3.90;;;;;;;25.85;42.02;97663.09;6269054;28;20314;-72
2021/10/04 13:08:39;;;;;;;4.30;3.90;;;;;;;26.36;41.90;97664.69;6268061;28;20219;-72
2021/10/04 13:11:49;;;;;;;4.82;4.32;;;;;;;26.83;41.21;97660.47;6268919;28;20214;-72
2021/10/04 13:14:52;;;;;;;7.60;4.72;;;;;;;26.73;41.38;97669.13;6268122;28;20218;-72
2021/10/04 13:17:54;;;;;;;6.47;4.38;;;;;;;26.66;40.54;97671.03;6268025;28;20683;-72
2021/10/04 13:20:56;;;;;;;6.90;4.75;;;;;;;26.45;41.86;97666.91;6268202;28;20184;-72
2021/10/04 13:23:58;;;;;;;6.45;4.75;;;;;;;26.89;40.75;97661.41;6268247;28;20206;-72
2021/10/04 13:27:01;;;;;;;5.85;4.40;;;;;;;27.74;39.15;97665.72;6268010;28;20306;-72
2021/10/04 13:30:05;;;;;;;5.40;4.53;;;;;;;29.08;37.03;97663.91;6271620;28;20199;-72
2021/10/04 13:33:07;;;;;;;4.40;4.00;;;;;;;30.23;35.24;97666.31;6272538;28;20219;-72
2021/10/04 13:36:09;;;;;;;7.53;4.80;;;;;;;29.54;35.59;97659.38;6272591;28;20203;-72
2021/10/04 13:39:14;;;;;;;4.63;4.00;;;;;;;31.02;33.40;97658.69;6272285;28;20215;-72
2021/10/04 13:42:16;;;;;;;5.75;4.35;;;;;;;31.59;32.25;97666.44;6272356;28;20655;-72
2021/10/04 13:45:18;;;;;;;5.97;4.13;;;;;;;32.88;30.49;97659.81;6272202;28;20318;-72
2021/10/04 13:48:21;;;;;;;6.22;4.00;;;;;;;33.90;29.08;97650.00;6272191;28;20190;-72
2021/10/04 13:51:24;;;;;;;5.25;4.70;;;;;;;32.41;30.65;97657.06;6272326;28;20195;-72
2021/10/04 13:54:26;;;;;;;5.40;4.00;;;;;;;29.25;35.81;97659.34;6271974;28;20197;-72
2021/10/04 13:57:28;;;;;;;4.85;3.75;;;;;;;27.92;39.09;97662.09;6270612;28;20207;-72
2021/10/04 14:00:33;;;;;;;5.57;3.88;;;;;;;26.43;41.57;97660.91;6271887;28;20607;-72
2021/10/04 14:03:36;;;;;;;4.68;3.97;;;;;;;25.95;42.51;97670.69;6271814;28;20191;-72
2021/10/04 14:06:38;;;;;;;4.72;4.20;;;;;;;24.70;44.86;97663.25;6271830;28;20195;-72
2021/10/04 14:09:40;;;;;;;4.97;4.15;;;;;;;24.15;46.42;97655.47;6271685;28;20215;-72
2021/10/04 14:12:42;;;;;;;3.92;3.58;;;;;;;23.64;47.34;97660.69;6271507;28;20195;-73
2021/10/04 14:15:44;;;;;;;4.53;4.13;;;;;;;23.30;48.46;97655.41;6271688;28;20195;-72
2021/10/04 14:18:46;;;;;;;4.60;4.17;;;;;;;22.90;49.15;97660.66;6262830;28;20694;-72
2021/10/04 14:21:48;;;;;;;4.93;4.50;;;;;;;22.71;50.56;97658.69;6250797;28;20326;-73
2021/10/04 14:24:50;;;;;;;6.77;3.90;;;;;;;22.33;50.93;97671.75;6246592;28;20755;-73
2021/10/04 14:27:53;;;;;;;5.17;3.60;;;;;;;22.02;51.22;97656.84;6246769;28;20291;-73
2021/10/04 14:30:57;;;;;;;4.87;4.20;;;;;;;21.86;51.63;97657.09;6265954;28;20210;-72